CUA5306 ZGCJ-ZBAD
Flight info
| Callsign | CUA5306 |
|---|---|
| Flight time | N/A |
| Altitude | 31100 |
| Route | MAKLA W102 EMVIL W284 UPSIK W4 LIMGI W175 AVKES G212 VYK |
| Aircraft | B738/M-SDE2E3FGHIRWXY/LB1 |
Departure
| Time | 2026-05-07 12:56 |
|---|---|
| Airport | Huaihua Zhijiang Airport (ZGCJ) |
Arrival
| Time | N/A |
|---|---|
| Airport | Beijing Daxing International Airport (ZBAD) |
| Time | Latitude | Longitude | Altitude | Speed | Heading |
|---|---|---|---|---|---|
| 2026-05-07 12:12 | 27.44473 | 109.70210 | 877 ft | 0 kts | 306° |
| 2026-05-07 12:27 | 27.44473 | 109.70211 | 853 ft | 0 kts | 306° |
| 2026-05-07 12:32 | 27.44472 | 109.70211 | 853 ft | 0 kts | 306° |
| 2026-05-07 12:42 | 27.44459 | 109.70232 | 848 ft | 4 kts | 305° |
| 2026-05-07 12:42 | 27.44443 | 109.70257 | 853 ft | 4 kts | 304° |
| 2026-05-07 12:42 | 27.44428 | 109.70282 | 852 ft | 4 kts | 303° |
| 2026-05-07 12:42 | 27.44414 | 109.70308 | 844 ft | 4 kts | 302° |
| 2026-05-07 12:43 | 27.44399 | 109.70334 | 843 ft | 4 kts | 303° |
| 2026-05-07 12:43 | 27.44386 | 109.70356 | 839 ft | 1 kts | 306° |
| 2026-05-07 12:50 | 27.44389 | 109.70351 | 839 ft | 2 kts | 307° |
| 2026-05-07 12:51 | 27.44407 | 109.70324 | 844 ft | 6 kts | 307° |
| 2026-05-07 12:51 | 27.44406 | 109.70278 | 844 ft | 8 kts | 228° |
| 2026-05-07 12:51 | 27.44353 | 109.70233 | 854 ft | 10 kts | 215° |
| 2026-05-07 12:51 | 27.44296 | 109.70197 | 851 ft | 8 kts | 178° |
| 2026-05-07 12:52 | 27.44254 | 109.70239 | 853 ft | 8 kts | 126° |
| 2026-05-07 12:52 | 27.44221 | 109.70290 | 845 ft | 8 kts | 126° |
| 2026-05-07 12:52 | 27.44185 | 109.70333 | 844 ft | 8 kts | 159° |
| 2026-05-07 12:52 | 27.44138 | 109.70310 | 853 ft | 8 kts | 220° |
| 2026-05-07 12:53 | 27.44090 | 109.70269 | 845 ft | 9 kts | 216° |
| 2026-05-07 12:53 | 27.44041 | 109.70229 | 849 ft | 9 kts | 216° |
| 2026-05-07 12:53 | 27.43987 | 109.70185 | 845 ft | 11 kts | 216° |
| 2026-05-07 12:53 | 27.43920 | 109.70130 | 849 ft | 13 kts | 216° |
| 2026-05-07 12:54 | 27.43845 | 109.70069 | 849 ft | 13 kts | 216° |
| 2026-05-07 12:54 | 27.43771 | 109.70008 | 850 ft | 13 kts | 216° |
| 2026-05-07 12:54 | 27.43732 | 109.69925 | 841 ft | 12 kts | 244° |
| 2026-05-07 12:54 | 27.43678 | 109.69930 | 843 ft | 8 kts | 88° |
| 2026-05-07 12:55 | 27.43708 | 109.69954 | 843 ft | 5 kts | 22° |
| 2026-05-07 12:55 | 27.43733 | 109.69971 | 848 ft | 0 kts | 36° |
| 2026-05-07 12:55 | 27.43754 | 109.69988 | 850 ft | 23 kts | 36° |
| 2026-05-07 12:55 | 27.44098 | 109.70273 | 848 ft | 97 kts | 36° |
| 2026-05-07 12:56 | 27.44808 | 109.70861 | 858 ft | 157 kts | 34° |
| 2026-05-07 12:56 | 27.45725 | 109.71617 | 1401 ft | 173 kts | 33° |
| 2026-05-07 12:56 | 27.46750 | 109.72411 | 2198 ft | 177 kts | 27° |
| 2026-05-07 12:56 | 27.47716 | 109.73114 | 3065 ft | 159 kts | 38° |
| 2026-05-07 12:57 | 27.48575 | 109.73896 | 3314 ft | 157 kts | 41° |
| 2026-05-07 12:57 | 27.49409 | 109.74667 | 3530 ft | 156 kts | 41° |
| 2026-05-07 12:57 | 27.50263 | 109.75473 | 3480 ft | 161 kts | 42° |
| 2026-05-07 12:57 | 27.51140 | 109.76251 | 3408 ft | 161 kts | 37° |
| 2026-05-07 12:58 | 27.52059 | 109.76952 | 3311 ft | 159 kts | 38° |
| 2026-05-07 12:58 | 27.52920 | 109.77667 | 3381 ft | 152 kts | 38° |
| 2026-05-07 12:58 | 27.53776 | 109.78388 | 3420 ft | 156 kts | 38° |
| 2026-05-07 12:58 | 27.54655 | 109.79128 | 3431 ft | 158 kts | 38° |
| 2026-05-07 12:59 | 27.55530 | 109.79864 | 3424 ft | 156 kts | 38° |
| 2026-05-07 12:59 | 27.56413 | 109.80566 | 3392 ft | 155 kts | 26° |
| 2026-05-07 12:59 | 27.57465 | 109.80762 | 3427 ft | 157 kts | 21° |
| 2026-05-07 12:59 | 27.58504 | 109.81076 | 3441 ft | 161 kts | 356° |
| 2026-05-07 13:00 | 27.59388 | 109.80194 | 3587 ft | 187 kts | 313° |
| 2026-05-07 13:00 | 27.60260 | 109.79176 | 3988 ft | 184 kts | 315° |
| 2026-05-07 13:00 | 27.61276 | 109.78278 | 4304 ft | 190 kts | 331° |
| 2026-05-07 13:00 | 27.62303 | 109.77298 | 4871 ft | 202 kts | 324° |
| 2026-05-07 13:01 | 27.63376 | 109.76158 | 5275 ft | 218 kts | 322° |
| 2026-05-07 13:01 | 27.64514 | 109.74971 | 5773 ft | 224 kts | 322° |
| 2026-05-07 13:01 | 27.65693 | 109.73771 | 6276 ft | 234 kts | 322° |
| 2026-05-07 13:01 | 27.66923 | 109.72539 | 6926 ft | 238 kts | 322° |
| 2026-05-07 13:02 | 27.68165 | 109.71304 | 7716 ft | 239 kts | 321° |
| 2026-05-07 13:02 | 27.69469 | 109.70150 | 8509 ft | 238 kts | 336° |
| 2026-05-07 13:02 | 27.71101 | 109.69699 | 9029 ft | 253 kts | 355° |
| 2026-05-07 13:02 | 27.72953 | 109.69595 | 9288 ft | 278 kts | 357° |
| 2026-05-07 13:03 | 27.74935 | 109.69538 | 9894 ft | 289 kts | 356° |
| 2026-05-07 13:03 | 27.76977 | 109.69488 | 10437 ft | 302 kts | 356° |
| 2026-05-07 13:03 | 27.79166 | 109.69427 | 10612 ft | 327 kts | 356° |
| 2026-05-07 13:03 | 27.81521 | 109.69354 | 10847 ft | 348 kts | 356° |
| 2026-05-07 13:04 | 27.83971 | 109.69273 | 11401 ft | 356 kts | 356° |
| 2026-05-07 13:04 | 27.86460 | 109.69187 | 12048 ft | 359 kts | 356° |
| 2026-05-07 13:04 | 27.88971 | 109.69097 | 12747 ft | 363 kts | 356° |
| 2026-05-07 13:04 | 27.91475 | 109.69006 | 13395 ft | 366 kts | 356° |
| 2026-05-07 13:05 | 27.94038 | 109.68911 | 14028 ft | 370 kts | 356° |
| 2026-05-07 13:05 | 27.96618 | 109.68814 | 14611 ft | 373 kts | 356° |
| 2026-05-07 13:05 | 27.99220 | 109.68716 | 15211 ft | 375 kts | 355° |
| 2026-05-07 13:05 | 28.01835 | 109.68619 | 15799 ft | 377 kts | 355° |
| 2026-05-07 13:06 | 28.04468 | 109.68520 | 16347 ft | 381 kts | 355° |
| 2026-05-07 13:06 | 28.07130 | 109.68419 | 16904 ft | 384 kts | 354° |
| 2026-05-07 13:06 | 28.09802 | 109.68318 | 17501 ft | 386 kts | 354° |
| 2026-05-07 13:06 | 28.12505 | 109.68216 | 18050 ft | 389 kts | 354° |
| 2026-05-07 13:07 | 28.15226 | 109.68114 | 18548 ft | 393 kts | 354° |
| 2026-05-07 13:07 | 28.17972 | 109.68010 | 18978 ft | 396 kts | 354° |
| 2026-05-07 13:07 | 28.20736 | 109.67907 | 19426 ft | 399 kts | 354° |
| 2026-05-07 13:07 | 28.23524 | 109.67803 | 19873 ft | 401 kts | 353° |
| 2026-05-07 13:08 | 28.26320 | 109.67698 | 20301 ft | 404 kts | 353° |
| 2026-05-07 13:08 | 28.29144 | 109.67593 | 20729 ft | 407 kts | 353° |
| 2026-05-07 13:08 | 28.31989 | 109.67488 | 21149 ft | 411 kts | 353° |
| 2026-05-07 13:08 | 28.34854 | 109.67381 | 21572 ft | 413 kts | 353° |
| 2026-05-07 13:09 | 28.37731 | 109.67275 | 22007 ft | 415 kts | 353° |
| 2026-05-07 13:09 | 28.40624 | 109.67167 | 22424 ft | 417 kts | 353° |
| 2026-05-07 13:09 | 28.43540 | 109.67058 | 22824 ft | 420 kts | 353° |
| 2026-05-07 13:09 | 28.46479 | 109.66949 | 23174 ft | 424 kts | 353° |
| 2026-05-07 13:10 | 28.49396 | 109.66840 | 23529 ft | 427 kts | 353° |
| 2026-05-07 13:10 | 28.52373 | 109.66729 | 23877 ft | 429 kts | 353° |
| 2026-05-07 13:10 | 28.55361 | 109.66618 | 24218 ft | 431 kts | 352° |
| 2026-05-07 13:10 | 28.58363 | 109.66507 | 24582 ft | 432 kts | 352° |
| 2026-05-07 13:11 | 28.61381 | 109.66395 | 24879 ft | 434 kts | 352° |
| 2026-05-07 13:11 | 28.64407 | 109.66282 | 25152 ft | 436 kts | 352° |
| 2026-05-07 13:11 | 28.67446 | 109.66169 | 25443 ft | 438 kts | 352° |
| 2026-05-07 13:11 | 28.70494 | 109.66055 | 25762 ft | 439 kts | 352° |
| 2026-05-07 13:12 | 28.73549 | 109.65941 | 26058 ft | 441 kts | 352° |
| 2026-05-07 13:12 | 28.76635 | 109.65826 | 26340 ft | 443 kts | 352° |
| 2026-05-07 13:12 | 28.79725 | 109.65711 | 26637 ft | 445 kts | 352° |
| 2026-05-07 13:12 | 28.82819 | 109.65597 | 26937 ft | 446 kts | 352° |
| 2026-05-07 13:13 | 28.85924 | 109.65481 | 27224 ft | 447 kts | 351° |
| 2026-05-07 13:13 | 28.89012 | 109.65366 | 27496 ft | 449 kts | 351° |
| 2026-05-07 13:13 | 28.92179 | 109.65246 | 27804 ft | 450 kts | 351° |
| 2026-05-07 13:13 | 28.95265 | 109.65129 | 28195 ft | 449 kts | 351° |
| 2026-05-07 13:14 | 28.98383 | 109.65012 | 28638 ft | 446 kts | 351° |
| 2026-05-07 13:14 | 29.01480 | 109.64895 | 29073 ft | 445 kts | 351° |
| 2026-05-07 13:14 | 29.04574 | 109.64777 | 29463 ft | 444 kts | 351° |
| 2026-05-07 13:14 | 29.07659 | 109.64659 | 29853 ft | 443 kts | 351° |
| 2026-05-07 13:15 | 29.10739 | 109.64542 | 30269 ft | 442 kts | 350° |
| 2026-05-07 13:15 | 29.13806 | 109.64425 | 30649 ft | 440 kts | 350° |
| 2026-05-07 13:15 | 29.16867 | 109.64308 | 31032 ft | 439 kts | 350° |
| 2026-05-07 13:15 | 29.19925 | 109.64190 | 31254 ft | 440 kts | 350° |
| 2026-05-07 13:16 | 29.26086 | 109.63954 | 31267 ft | 441 kts | 350° |
| 2026-05-07 13:16 | 29.32181 | 109.63722 | 31256 ft | 438 kts | 349° |
| 2026-05-07 13:17 | 29.38270 | 109.63486 | 31265 ft | 437 kts | 349° |
| 2026-05-07 13:17 | 29.44316 | 109.63251 | 31277 ft | 438 kts | 349° |
| 2026-05-07 13:18 | 29.50406 | 109.63016 | 31264 ft | 438 kts | 349° |
| 2026-05-07 13:18 | 29.56502 | 109.62786 | 31268 ft | 438 kts | 349° |
| 2026-05-07 13:19 | 29.62594 | 109.62556 | 31278 ft | 439 kts | 349° |
| 2026-05-07 13:19 | 29.68709 | 109.62326 | 31278 ft | 440 kts | 350° |
| 2026-05-07 13:20 | 29.74834 | 109.62096 | 31286 ft | 441 kts | 350° |
| 2026-05-07 13:20 | 29.80962 | 109.61867 | 31226 ft | 439 kts | 350° |
| 2026-05-07 13:21 | 29.87040 | 109.61640 | 31284 ft | 436 kts | 350° |
| 2026-05-07 13:21 | 29.93088 | 109.61410 | 31280 ft | 436 kts | 350° |
| 2026-05-07 13:22 | 29.99133 | 109.61178 | 31285 ft | 437 kts | 350° |
| 2026-05-07 13:22 | 30.05219 | 109.60947 | 31294 ft | 439 kts | 350° |
| 2026-05-07 13:23 | 30.11339 | 109.60715 | 31290 ft | 440 kts | 350° |
| 2026-05-07 13:23 | 30.17467 | 109.60483 | 31302 ft | 441 kts | 350° |
| 2026-05-07 13:24 | 30.23606 | 109.60285 | 31294 ft | 441 kts | 351° |
| 2026-05-07 13:24 | 30.29736 | 109.60176 | 31290 ft | 443 kts | 353° |
| 2026-05-07 13:25 | 30.35948 | 109.60620 | 31288 ft | 448 kts | 356° |
| 2026-05-07 13:25 | 30.42157 | 109.61163 | 31308 ft | 447 kts | 356° |
| 2026-05-07 13:26 | 30.48377 | 109.61736 | 31296 ft | 448 kts | 357° |
| 2026-05-07 13:26 | 30.54552 | 109.62307 | 31295 ft | 448 kts | 356° |
| 2026-05-07 13:27 | 30.60765 | 109.62876 | 31298 ft | 448 kts | 356° |
| 2026-05-07 13:27 | 30.66973 | 109.63442 | 31304 ft | 447 kts | 356° |
| 2026-05-07 13:28 | 30.73171 | 109.64010 | 31302 ft | 446 kts | 356° |
| 2026-05-07 13:28 | 30.79362 | 109.64576 | 31302 ft | 446 kts | 356° |
| 2026-05-07 13:29 | 30.85542 | 109.65143 | 31305 ft | 446 kts | 356° |
| 2026-05-07 13:29 | 30.91730 | 109.65715 | 31295 ft | 446 kts | 356° |
| 2026-05-07 13:30 | 30.96865 | 109.66191 | 31300 ft | 446 kts | 356° |
| 2026-05-07 13:30 | 31.04092 | 109.66861 | 31298 ft | 445 kts | 356° |
| 2026-05-07 13:31 | 31.09240 | 109.67339 | 31297 ft | 446 kts | 356° |
| 2026-05-07 13:31 | 31.15439 | 109.67915 | 31292 ft | 446 kts | 356° |
| 2026-05-07 13:32 | 31.22641 | 109.68583 | 31304 ft | 446 kts | 356° |
| 2026-05-07 13:32 | 31.27787 | 109.69053 | 31303 ft | 446 kts | 356° |
| 2026-05-07 13:33 | 31.33978 | 109.69618 | 31304 ft | 446 kts | 356° |
| 2026-05-07 13:33 | 31.40150 | 109.70185 | 31318 ft | 445 kts | 356° |
| 2026-05-07 13:34 | 31.49408 | 109.71035 | 31322 ft | 445 kts | 356° |
| 2026-05-07 13:35 | 31.55576 | 109.71603 | 31329 ft | 444 kts | 357° |
| 2026-05-07 13:35 | 31.61753 | 109.72171 | 31329 ft | 445 kts | 357° |
| 2026-05-07 13:36 | 31.67892 | 109.72738 | 31334 ft | 445 kts | 357° |
| 2026-05-07 13:36 | 31.74076 | 109.73312 | 31322 ft | 446 kts | 357° |
| 2026-05-07 13:37 | 31.80242 | 109.73884 | 31322 ft | 445 kts | 357° |
| 2026-05-07 13:37 | 31.86438 | 109.74456 | 31319 ft | 445 kts | 357° |
| 2026-05-07 13:38 | 31.92613 | 109.75029 | 31314 ft | 445 kts | 357° |
| 2026-05-07 13:38 | 31.98777 | 109.75602 | 31311 ft | 443 kts | 358° |
| 2026-05-07 13:39 | 32.04924 | 109.76174 | 31307 ft | 443 kts | 357° |
| 2026-05-07 13:39 | 32.11064 | 109.76747 | 31293 ft | 442 kts | 358° |
| 2026-05-07 13:40 | 32.17166 | 109.77316 | 31290 ft | 442 kts | 357° |
| 2026-05-07 13:40 | 32.23281 | 109.78553 | 31307 ft | 454 kts | 12° |
| 2026-05-07 13:41 | 32.29125 | 109.81594 | 31315 ft | 460 kts | 19° |
| 2026-05-07 13:41 | 32.34904 | 109.84904 | 31291 ft | 461 kts | 19° |
| 2026-05-07 13:42 | 32.40691 | 109.88183 | 31288 ft | 461 kts | 19° |
| 2026-05-07 13:42 | 32.46491 | 109.91420 | 31300 ft | 461 kts | 19° |
| 2026-05-07 13:43 | 32.52306 | 109.94650 | 31297 ft | 462 kts | 19° |
| 2026-05-07 13:43 | 32.58120 | 109.97884 | 31271 ft | 461 kts | 19° |
| 2026-05-07 13:44 | 32.63878 | 110.01095 | 31295 ft | 458 kts | 19° |
| 2026-05-07 13:44 | 32.69660 | 110.04321 | 31283 ft | 459 kts | 19° |
| 2026-05-07 13:45 | 32.75454 | 110.07558 | 31291 ft | 460 kts | 19° |
| 2026-05-07 13:45 | 32.81256 | 110.10806 | 31278 ft | 461 kts | 19° |
| 2026-05-07 13:46 | 32.87073 | 110.14067 | 31282 ft | 462 kts | 19° |
| 2026-05-07 13:46 | 32.92890 | 110.17333 | 31273 ft | 462 kts | 19° |
| 2026-05-07 13:47 | 32.98707 | 110.20604 | 31280 ft | 462 kts | 19° |
| 2026-05-07 13:47 | 33.04523 | 110.23880 | 31284 ft | 463 kts | 19° |
| 2026-05-07 13:48 | 33.10310 | 110.27143 | 31281 ft | 463 kts | 19° |
| 2026-05-07 13:48 | 33.16136 | 110.30432 | 31284 ft | 464 kts | 19° |
| 2026-05-07 13:49 | 33.21982 | 110.33740 | 31286 ft | 464 kts | 18° |
| 2026-05-07 13:49 | 33.27823 | 110.37048 | 31291 ft | 465 kts | 19° |
| 2026-05-07 13:50 | 33.33669 | 110.40364 | 31289 ft | 465 kts | 18° |
| 2026-05-07 13:50 | 33.39524 | 110.43692 | 31292 ft | 465 kts | 18° |
| 2026-05-07 13:51 | 33.45325 | 110.46994 | 31298 ft | 465 kts | 18° |
| 2026-05-07 13:51 | 33.51169 | 110.50324 | 31298 ft | 464 kts | 18° |
| 2026-05-07 13:52 | 33.56989 | 110.53645 | 31298 ft | 462 kts | 18° |
| 2026-05-07 13:52 | 33.62786 | 110.56959 | 31306 ft | 461 kts | 18° |
| 2026-05-07 13:53 | 33.68562 | 110.60266 | 31298 ft | 459 kts | 18° |
| 2026-05-07 13:53 | 33.74318 | 110.63566 | 31301 ft | 459 kts | 18° |
| 2026-05-07 13:54 | 33.80084 | 110.66875 | 31320 ft | 459 kts | 18° |
| 2026-05-07 13:54 | 33.85843 | 110.70187 | 31320 ft | 458 kts | 18° |
| 2026-05-07 13:55 | 33.91594 | 110.73499 | 31327 ft | 459 kts | 18° |
| 2026-05-07 13:55 | 33.97330 | 110.76806 | 31323 ft | 461 kts | 18° |
| 2026-05-07 13:56 | 34.03123 | 110.80152 | 31320 ft | 462 kts | 18° |
| 2026-05-07 13:56 | 34.08916 | 110.83504 | 31320 ft | 463 kts | 18° |
| 2026-05-07 13:57 | 34.14738 | 110.86879 | 31303 ft | 463 kts | 18° |
| 2026-05-07 13:57 | 34.20547 | 110.90251 | 31297 ft | 463 kts | 18° |
| 2026-05-07 13:58 | 34.26341 | 110.93619 | 31309 ft | 461 kts | 18° |
| 2026-05-07 13:58 | 34.32110 | 110.96978 | 31300 ft | 460 kts | 18° |
| 2026-05-07 13:59 | 34.37854 | 111.00327 | 31297 ft | 460 kts | 18° |
| 2026-05-07 13:59 | 34.43763 | 111.02945 | 31314 ft | 445 kts | 3° |
| 2026-05-07 14:00 | 34.49808 | 111.03479 | 31314 ft | 432 kts | 351° |
| 2026-05-07 14:00 | 34.55826 | 111.03406 | 31298 ft | 432 kts | 351° |
| 2026-05-07 14:01 | 34.61855 | 111.03362 | 31299 ft | 434 kts | 352° |
| 2026-05-07 14:01 | 34.67903 | 111.03360 | 31290 ft | 435 kts | 352° |
| 2026-05-07 14:02 | 34.73957 | 111.03371 | 31292 ft | 435 kts | 352° |
| 2026-05-07 14:02 | 34.79964 | 111.03380 | 31292 ft | 435 kts | 352° |
| 2026-05-07 14:03 | 34.86021 | 111.03387 | 31289 ft | 435 kts | 352° |
| 2026-05-07 14:03 | 34.92072 | 111.03394 | 31289 ft | 434 kts | 352° |
| 2026-05-07 14:04 | 34.98117 | 111.03401 | 31289 ft | 435 kts | 352° |
| 2026-05-07 14:04 | 35.04169 | 111.03408 | 31290 ft | 434 kts | 352° |
| 2026-05-07 14:05 | 35.10210 | 111.03595 | 31281 ft | 440 kts | 0° |
| 2026-05-07 14:05 | 35.16142 | 111.05677 | 31284 ft | 457 kts | 17° |
| 2026-05-07 14:06 | 35.21849 | 111.09132 | 31292 ft | 458 kts | 19° |
| 2026-05-07 14:06 | 35.27560 | 111.12542 | 31287 ft | 456 kts | 18° |
| 2026-05-07 14:07 | 35.33285 | 111.15879 | 31285 ft | 455 kts | 18° |
| 2026-05-07 14:07 | 35.38998 | 111.19220 | 31287 ft | 455 kts | 18° |
| 2026-05-07 14:08 | 35.44709 | 111.22570 | 31287 ft | 455 kts | 18° |
| 2026-05-07 14:08 | 35.50418 | 111.25925 | 31292 ft | 455 kts | 18° |
| 2026-05-07 14:09 | 35.56118 | 111.29282 | 31291 ft | 454 kts | 18° |
| 2026-05-07 14:09 | 35.61822 | 111.32645 | 31287 ft | 454 kts | 18° |
| 2026-05-07 14:10 | 35.67514 | 111.36007 | 31292 ft | 454 kts | 18° |
| 2026-05-07 14:10 | 35.73219 | 111.39381 | 31285 ft | 454 kts | 18° |
| 2026-05-07 14:11 | 35.78886 | 111.42739 | 31281 ft | 454 kts | 18° |
| 2026-05-07 14:11 | 35.84574 | 111.46114 | 31290 ft | 454 kts | 18° |
| 2026-05-07 14:12 | 35.90279 | 111.49504 | 31284 ft | 455 kts | 18° |
| 2026-05-07 14:12 | 35.95988 | 111.52903 | 31292 ft | 455 kts | 18° |
| 2026-05-07 14:13 | 36.01656 | 111.56283 | 31292 ft | 455 kts | 18° |
| 2026-05-07 14:13 | 36.07364 | 111.59693 | 31297 ft | 455 kts | 18° |
| 2026-05-07 14:14 | 36.13067 | 111.63105 | 31298 ft | 455 kts | 18° |
| 2026-05-07 14:14 | 36.18761 | 111.66517 | 31299 ft | 454 kts | 18° |
| 2026-05-07 14:15 | 36.24439 | 111.69926 | 31302 ft | 453 kts | 17° |
| 2026-05-07 14:15 | 36.30105 | 111.73332 | 31303 ft | 452 kts | 17° |
| 2026-05-07 14:16 | 36.35751 | 111.76732 | 31312 ft | 450 kts | 17° |
| 2026-05-07 14:16 | 36.41383 | 111.80128 | 31317 ft | 450 kts | 17° |
| 2026-05-07 14:17 | 36.46058 | 111.82951 | 31327 ft | 449 kts | 17° |
| 2026-05-07 14:17 | 36.52598 | 111.86907 | 31333 ft | 450 kts | 17° |
| 2026-05-07 14:18 | 36.57290 | 111.89750 | 31324 ft | 451 kts | 17° |
| 2026-05-07 14:18 | 36.62928 | 111.93173 | 31315 ft | 449 kts | 16° |
| 2026-05-07 14:19 | 36.68538 | 111.96596 | 31335 ft | 450 kts | 17° |
| 2026-05-07 14:19 | 36.74142 | 112.00096 | 31341 ft | 451 kts | 17° |
| 2026-05-07 14:20 | 36.79757 | 112.03625 | 31337 ft | 451 kts | 17° |
| 2026-05-07 14:20 | 36.85376 | 112.07152 | 31357 ft | 452 kts | 17° |
| 2026-05-07 14:21 | 36.90955 | 112.10720 | 31587 ft | 449 kts | 18° |
| 2026-05-07 14:21 | 36.96524 | 112.14274 | 31461 ft | 451 kts | 15° |
| 2026-05-07 14:22 | 37.03112 | 112.18309 | 31362 ft | 456 kts | 16° |
| 2026-05-07 14:22 | 37.07827 | 112.21279 | 31343 ft | 455 kts | 16° |
| 2026-05-07 14:23 | 37.13468 | 112.24780 | 31334 ft | 449 kts | 14° |
| 2026-05-07 14:23 | 37.19093 | 112.28086 | 31334 ft | 444 kts | 14° |
| 2026-05-07 14:24 | 37.24658 | 112.31350 | 31330 ft | 440 kts | 14° |
| 2026-05-07 14:24 | 37.30169 | 112.34611 | 31335 ft | 437 kts | 14° |
| 2026-05-07 14:25 | 37.35660 | 112.37874 | 31336 ft | 436 kts | 14° |
| 2026-05-07 14:25 | 37.41138 | 112.41136 | 31337 ft | 435 kts | 13° |